Time;durP1;ratioP1;P1;durP2;ratioP2;P2;SDS_P1;SDS_P2;PMS_P1;PMS_P2;Temp;Humidity;BMP_temperature;BMP_pressure;BME280_temperature;BME280_humidity;BME280_pressure;Samples;Min_cycle;Max_cycle;Signal;HPM_P1;HPM_P2
2021/01/04 00:02:15;;;;;;;27.27;17.95;;;0.80;99.90;;;;;;6163328;23;20022;-83
2021/01/04 00:05:04;;;;;;;30.33;19.02;;;0.80;99.90;;;;;;6135692;23;20025;-83
2021/01/04 00:07:53;;;;;;;30.73;19.23;;;0.70;99.90;;;;;;6161640;23;20025;-83
2021/01/04 00:10:36;;;;;;;29.15;18.67;;;0.70;99.90;;;;;;6161339;23;20056;-83
2021/01/04 00:13:42;;;;;;;30.65;19.08;;;0.70;99.90;;;;;;6160295;23;20068;-83
2021/01/04 00:16:24;;;;;;;26.58;17.65;;;0.80;99.90;;;;;;6160741;23;20025;-82
2021/01/04 00:19:06;;;;;;;29.70;18.73;;;0.80;99.90;;;;;;6157784;23;20025;-82
2021/01/04 00:21:51;;;;;;;27.95;17.77;;;0.80;99.90;;;;;;6156179;23;20072;-82
2021/01/04 00:24:51;;;;;;;29.13;18.63;;;0.80;99.90;;;;;;6156581;23;20101;-82
2021/01/04 00:27:32;;;;;;;28.10;18.17;;;0.80;99.90;;;;;;6130503;23;20032;-82
2021/01/04 00:30:01;;;;;;;26.13;18.38;;;0.80;99.90;;;;;;6156522;23;20033;-82
2021/01/04 00:32:34;;;;;;;29.15;18.35;;;0.90;99.90;;;;;;6156431;23;20032;-82
2021/01/04 00:35:12;;;;;;;28.90;17.52;;;0.90;99.90;;;;;;6130511;23;20096;-82
2021/01/04 00:38:07;;;;;;;26.27;17.77;;;0.90;99.90;;;;;;6130670;23;20053;-82
2021/01/04 00:40:37;;;;;;;30.83;19.02;;;0.90;99.90;;;;;;6156696;23;20068;-82
2021/01/04 00:43:09;;;;;;;31.25;19.85;;;0.90;99.90;;;;;;6155998;23;20536;-82
2021/01/04 00:45:46;;;;;;;30.00;19.33;;;1.00;99.90;;;;;;6156517;23;20049;-82
2021/01/04 00:48:28;;;;;;;28.10;18.85;;;1.00;99.90;;;;;;6156496;23;20413;-82
2021/01/04 00:51:38;;;;;;;28.45;17.98;;;1.00;99.90;;;;;;6155945;23;20100;-82
2021/01/04 00:54:22;;;;;;;28.02;18.35;;;1.00;99.90;;;;;;6037108;23;20023;-82
2021/01/04 00:57:09;;;;;;;31.08;19.33;;;1.00;99.90;;;;;;6153578;23;20021;-82
2021/01/04 01:00:06;;;;;;;32.03;18.33;;;1.00;99.90;;;;;;6156329;23;20021;-82
2021/01/04 01:02:35;;;;;;;30.17;17.77;;;1.00;99.90;;;;;;6156125;23;20022;-82
2021/01/04 01:05:13;;;;;;;28.58;18.30;;;1.00;99.90;;;;;;6162900;23;20021;-82
2021/01/04 01:08:07;;;;;;;31.38;18.75;;;1.00;99.90;;;;;;6156218;23;20021;-82
2021/01/04 01:10:36;;;;;;;;;;;1.10;99.90;;;;;;6156395;23;20032;-82
2021/01/04 01:13:20;;;;;;;31.95;19.38;;;1.00;99.90;;;;;;6169453;23;19951;-83
2021/01/04 01:16:13;;;;;;;38.83;20.10;;;0.90;99.90;;;;;;6161990;23;20049;-83
2021/01/04 01:19:02;;;;;;;33.60;19.63;;;0.90;99.90;;;;;;6162023;23;20028;-83
2021/01/04 01:21:29;;;;;;;36.55;20.08;;;0.90;99.90;;;;;;6134596;23;20021;-83
2021/01/04 01:23:55;;;;;;;32.63;18.65;;;0.90;99.90;;;;;;6135587;23;20364;-83
2021/01/04 01:26:51;;;;;;;46.25;20.75;;;0.90;99.90;;;;;;6161475;23;20026;-83
2021/01/04 01:29:20;;;;;;;40.53;18.48;;;0.80;99.90;;;;;;6160570;23;20058;-83
2021/01/04 01:32:03;;;;;;;35.25;18.10;;;0.80;99.90;;;;;;6161245;23;20032;-83
2021/01/04 01:34:53;;;;;;;39.03;19.63;;;0.90;99.90;;;;;;6135296;23;20067;-83
2021/01/04 01:37:34;;;;;;;40.33;19.13;;;0.90;99.90;;;;;;6160968;23;20076;-83
2021/01/04 01:40:28;;;;;;;37.45;18.98;;;1.00;99.90;;;;;;6160166;23;20409;-83
2021/01/04 01:43:09;;;;;;;;;;;1.00;99.90;;;;;;6161635;23;20025;-83
2021/01/04 01:45:58;;;;;;;37.92;18.25;;;1.00;99.90;;;;;;6134766;23;19916;-83
2021/01/04 01:48:46;;;;;;;38.63;18.38;;;0.90;99.90;;;;;;6161145;23;20029;-83
2021/01/04 01:51:33;;;;;;;38.22;18.55;;;0.90;99.90;;;;;;6135399;23;20029;-83
2021/01/04 01:54:35;;;;;;;40.35;18.98;;;0.80;99.90;;;;;;6160218;23;20073;-83
2021/01/04 01:57:21;;;;;;;40.60;19.23;;;0.80;99.90;;;;;;6134564;23;20068;-83
2021/01/04 02:00:00;;;;;;;41.28;18.73;;;0.80;99.90;;;;;;6160171;23;20055;-83
2021/01/04 02:02:35;;;;;;;39.75;18.83;;;0.90;99.90;;;;;;6134653;23;20021;-83
2021/01/04 02:05:09;;;;;;;39.08;17.80;;;0.90;99.90;;;;;;6133808;23;20022;-83
2021/01/04 02:08:01;;;;;;;36.30;16.77;;;0.90;99.90;;;;;;6159214;23;20076;-83
2021/01/04 02:10:32;;;;;;;36.30;17.45;;;0.90;99.90;;;;;;6129894;23;20017;-82
2021/01/04 02:13:17;;;;;;;44.25;18.15;;;0.90;99.90;;;;;;6155523;23;20444;-82
2021/01/04 02:15:54;;;;;;;44.42;18.80;;;0.80;99.90;;;;;;6130005;23;20080;-82
2021/01/04 02:18:45;;;;;;;38.55;16.92;;;0.80;99.90;;;;;;6155909;23;20326;-82
2021/01/04 02:21:34;;;;;;;37.40;17.92;;;0.90;99.90;;;;;;6129808;23;20060;-82
2021/01/04 02:24:12;;;;;;;34.70;16.23;;;0.90;99.90;;;;;;6157711;23;20025;-83
2021/01/04 02:26:45;;;;;;;43.28;17.48;;;0.90;99.90;;;;;;6159649;23;20057;-83
2021/01/04 02:29:17;;;;;;;38.75;17.50;;;0.80;99.90;;;;;;6134134;23;20040;-83
2021/01/04 02:31:48;;;;;;;37.72;16.63;;;0.80;99.90;;;;;;6133806;23;20026;-83
2021/01/04 02:34:18;;;;;;;34.35;16.63;;;0.80;99.90;;;;;;6133183;23;20080;-83
2021/01/04 02:36:50;;;;;;;34.75;16.58;;;0.70;99.90;;;;;;6132749;23;20021;-83
2021/01/04 02:39:47;;;;;;;32.63;16.48;;;0.70;99.90;;;;;;6132805;23;20403;-83
2021/01/04 02:42:17;;;;;;;36.13;16.63;;;0.80;99.90;;;;;;6133211;23;20026;-83
2021/01/04 02:44:45;;;;;;;34.15;16.02;;;0.80;99.90;;;;;;6159500;23;20049;-83
2021/01/04 02:47:39;;;;;;;34.17;16.88;;;0.80;99.90;;;;;;6158992;23;20045;-83
2021/01/04 02:50:23;;;;;;;37.20;17.33;;;0.70;99.90;;;;;;6159235;23;20056;-83
2021/01/04 02:53:11;;;;;;;39.13;16.58;;;0.70;99.90;;;;;;6161281;23;20033;-83
2021/01/04 02:56:02;;;;;;;35.65;17.40;;;0.70;99.90;;;;;;6161242;23;20022;-83
2021/01/04 02:58:58;;;;;;;38.40;17.33;;;0.70;99.90;;;;;;6161192;23;20385;-83
2021/01/04 03:01:46;;;;;;;36.95;17.42;;;0.70;99.90;;;;;;6160513;23;20032;-83
2021/01/04 03:04:15;;;;;;;29.08;16.40;;;0.80;99.90;;;;;;6160392;23;20405;-83
2021/01/04 03:06:53;;;;;;;37.15;18.20;;;0.80;99.90;;;;;;6160007;23;20064;-83
2021/01/04 03:09:22;;;;;;;34.00;17.10;;;0.70;99.90;;;;;;6160723;23;20023;-83
2021/01/04 03:11:49;;;;;;;36.58;18.00;;;0.70;99.90;;;;;;6133671;23;20045;-80
2021/01/04 03:14:40;;;;;;;33.28;15.88;;;0.80;99.90;;;;;;6134301;23;20018;-82
2021/01/04 03:17:20;;;;;;;33.38;17.02;;;0.70;99.90;;;;;;6133855;23;20472;-83
2021/01/04 03:19:50;;;;;;;31.77;16.50;;;0.80;99.90;;;;;;6160732;23;20044;-82
2021/01/04 03:22:17;;;;;;;33.42;15.57;;;0.80;99.90;;;;;;6160331;23;20330;-82
2021/01/04 03:24:49;;;;;;;30.40;16.30;;;0.80;99.90;;;;;;6160742;23;20182;-83
2021/01/04 03:27:30;;;;;;;28.25;15.75;;;0.90;99.90;;;;;;6134102;23;20104;-83
2021/01/04 03:29:56;;;;;;;31.13;15.68;;;1.00;99.90;;;;;;6159921;23;20025;-83
2021/01/04 03:32:22;;;;;;;33.47;16.17;;;0.90;99.90;;;;;;6134153;23;20100;-83
2021/01/04 03:34:49;;;;;;;32.63;15.90;;;0.90;99.90;;;;;;6159921;23;20064;-83
2021/01/04 03:37:20;;;;;;;32.58;16.50;;;0.90;99.90;;;;;;6138836;23;20020;-83
2021/01/04 03:39:46;;;;;;;28.58;15.02;;;0.90;99.90;;;;;;6136940;23;20021;-83
2021/01/04 03:42:12;;;;;;;32.22;16.42;;;0.90;99.90;;;;;;6161901;23;20469;-83
2021/01/04 03:44:40;;;;;;;29.52;16.35;;;0.90;99.90;;;;;;6135234;23;20021;-83
2021/01/04 03:47:07;;;;;;;28.13;15.52;;;0.90;99.90;;;;;;6161330;23;20053;-83
2021/01/04 03:49:33;;;;;;;26.10;14.52;;;0.90;99.90;;;;;;6135438;23;20032;-83
2021/01/04 03:52:00;;;;;;;29.08;15.18;;;0.90;99.90;;;;;;6161235;23;20025;-83
2021/01/04 03:54:26;;;;;;;28.60;15.32;;;0.90;99.90;;;;;;6134764;23;20017;-83
2021/01/04 03:56:53;;;;;;;33.67;16.15;;;0.80;99.90;;;;;;6160454;23;20052;-83
2021/01/04 03:59:20;;;;;;;29.42;15.45;;;0.80;99.90;;;;;;6132637;23;20021;-82
2021/01/04 04:01:51;;;;;;;30.77;15.95;;;0.90;99.90;;;;;;6156091;23;20084;-82
2021/01/04 04:04:19;;;;;;;27.00;14.57;;;0.80;99.90;;;;;;6155842;23;20084;-82
2021/01/04 04:06:46;;;;;;;25.77;14.38;;;0.90;99.90;;;;;;6130409;23;20076;-82
2021/01/04 04:09:14;;;;;;;26.73;14.95;;;0.90;99.90;;;;;;6156456;23;20491;-82
2021/01/04 04:11:40;;;;;;;25.05;14.48;;;0.90;99.90;;;;;;6156316;23;20064;-82
2021/01/04 04:14:07;;;;;;;27.35;15.68;;;1.00;99.90;;;;;;6130485;23;20096;-82
2021/01/04 04:16:34;;;;;;;27.95;14.82;;;1.00;99.90;;;;;;6130693;23;20487;-82
2021/01/04 04:19:00;;;;;;;28.73;14.70;;;1.00;99.90;;;;;;6156776;23;20449;-82
2021/01/04 04:21:27;;;;;;;26.30;14.98;;;1.00;99.90;;;;;;6131074;23;20021;-82
2021/01/04 04:23:53;;;;;;;30.58;15.80;;;1.10;99.90;;;;;;6156434;23;20105;-81
2021/01/04 04:26:23;;;;;;;27.38;14.90;;;1.10;99.90;;;;;;6131094;23;20021;-82
2021/01/04 04:28:50;;;;;;;28.63;14.80;;;1.00;99.90;;;;;;6130726;23;20057;-82
2021/01/04 04:31:17;;;;;;;28.05;15.52;;;1.10;99.90;;;;;;6130722;23;20068;-82
2021/01/04 04:33:44;;;;;;;28.42;15.07;;;1.00;99.90;;;;;;6156413;23;20073;-82
2021/01/04 04:36:22;;;;;;;32.80;16.02;;;0.90;99.90;;;;;;6156595;23;20060;-82
2021/01/04 04:38:51;;;;;;;30.17;15.30;;;0.90;99.90;;;;;;6130726;23;20022;-82
2021/01/04 04:41:31;;;;;;;27.27;14.95;;;0.90;99.90;;;;;;6157493;23;20463;-83
2021/01/04 04:44:11;;;;;;;30.67;15.45;;;0.90;99.90;;;;;;6131894;23;20544;-82
2021/01/04 04:46:56;;;;;;;28.20;14.40;;;1.00;99.90;;;;;;6158021;23;20056;-82
2021/01/04 04:49:43;;;;;;;30.30;16.08;;;1.00;99.90;;;;;;6132543;23;20076;-82
2021/01/04 04:52:21;;;;;;;28.38;14.32;;;1.10;99.90;;;;;;6157834;23;20025;-82
2021/01/04 04:54:52;;;;;;;29.92;15.93;;;1.00;99.90;;;;;;6131518;23;20072;-82
2021/01/04 04:57:49;;;;;;;29.08;15.20;;;1.00;99.90;;;;;;6158076;23;20023;-82
2021/01/04 05:00:35;;;;;;;34.03;16.08;;;1.00;99.90;;;;;;6132256;23;20049;-82
2021/01/04 05:03:12;;;;;;;31.65;15.52;;;0.90;99.90;;;;;;6132856;23;20045;-82
2021/01/04 05:05:59;;;;;;;29.17;15.52;;;0.90;99.90;;;;;;6159587;23;20080;-82
2021/01/04 05:08:56;;;;;;;28.27;14.38;;;0.90;99.90;;;;;;6159560;23;20092;-82
2021/01/04 05:11:33;;;;;;;27.55;13.63;;;1.00;99.90;;;;;;6159351;23;20017;-82
2021/01/04 05:14:04;;;;;;;27.98;14.32;;;0.90;99.90;;;;;;6159164;23;20021;-83
2021/01/04 05:17:00;;;;;;;25.58;14.35;;;0.90;99.90;;;;;;6158658;23;20064;-82
2021/01/04 05:19:57;;;;;;;27.25;14.70;;;0.90;99.90;;;;;;6160479;23;20029;-82
2021/01/04 05:22:58;;;;;;;24.17;13.88;;;0.80;99.90;;;;;;6138500;23;20062;-82
2021/01/04 05:25:45;;;;;;;26.95;14.10;;;0.90;99.90;;;;;;6145815;23;20021;-81
2021/01/04 05:28:32;;;;;;;23.10;14.00;;;1.00;99.90;;;;;;6170793;23;20484;-83
2021/01/04 05:31:35;;;;;;;60.80;34.63;;;1.00;99.90;;;;;;6170329;23;20021;-83
2021/01/04 05:34:21;;;;;;;32.28;19.50;;;1.00;99.90;;;;;;6138039;23;20500;-82
2021/01/04 05:37:12;;;;;;;41.13;24.05;;;1.00;99.90;;;;;;6142511;23;20348;-83
2021/01/04 05:39:51;;;;;;;30.40;16.25;;;1.00;99.90;;;;;;6141871;23;20349;-83
2021/01/04 05:42:27;;;;;;;26.10;14.70;;;1.00;99.90;;;;;;6141420;23;20029;-83
2021/01/04 05:44:59;;;;;;;34.55;18.67;;;1.00;99.90;;;;;;6141968;23;20033;-83
2021/01/04 05:47:54;;;;;;;33.38;23.25;;;1.00;99.90;;;;;;6166972;23;20045;-82
2021/01/04 05:50:52;;;;;;;37.13;24.73;;;1.00;99.90;;;;;;6155863;23;20036;-82
2021/01/04 05:53:18;;;;;;;24.20;13.23;;;1.10;99.90;;;;;;6157543;23;20018;-82
2021/01/04 05:55:45;;;;;;;24.30;13.02;;;1.10;99.90;;;;;;6157811;23;20021;-82
2021/01/04 05:58:17;;;;;;;33.28;23.73;;;1.10;99.90;;;;;;6157418;23;20017;-82
2021/01/04 06:00:43;;;;;;;38.88;27.25;;;1.00;99.90;;;;;;6158492;23;20499;-82
2021/01/04 06:03:13;;;;;;;32.85;21.17;;;0.90;99.90;;;;;;6158586;23;20053;-82
2021/01/04 06:05:40;;;;;;;26.88;14.27;;;0.90;99.90;;;;;;6133685;23;20024;-83
2021/01/04 06:08:25;;;;;;;47.45;35.70;;;0.90;99.90;;;;;;6158581;23;20072;-82
2021/01/04 06:11:12;;;;;;;22.77;14.25;;;0.90;99.90;;;;;;6161099;23;20072;-83
2021/01/04 06:13:44;;;;;;;25.77;15.27;;;1.00;99.90;;;;;;6161181;23;20021;-83
2021/01/04 06:16:16;;;;;;;25.52;14.90;;;1.00;99.90;;;;;;6161106;23;20021;-83
2021/01/04 06:18:47;;;;;;;24.65;13.80;;;0.90;99.90;;;;;;6134657;23;20049;-83
2021/01/04 06:21:22;;;;;;;24.90;14.07;;;1.00;99.90;;;;;;6135618;23;20057;-83
2021/01/04 06:23:50;;;;;;;19.42;12.80;;;1.00;99.90;;;;;;6163902;23;20025;-83
2021/01/04 06:26:23;;;;;;;26.58;13.55;;;1.10;99.90;;;;;;6164166;23;20025;-83
2021/01/04 06:29:00;;;;;;;22.07;12.30;;;1.10;99.90;;;;;;6165891;23;20060;-81
2021/01/04 06:31:41;;;;;;;23.85;13.52;;;1.10;99.90;;;;;;6163368;23;20028;-82
2021/01/04 06:34:23;;;;;;;24.00;13.20;;;1.10;99.90;;;;;;6165341;23;20028;-83
2021/01/04 06:36:54;;;;;;;24.55;13.77;;;1.10;99.90;;;;;;6139055;23;20021;-83
2021/01/04 06:39:30;;;;;;;21.85;12.55;;;1.10;99.90;;;;;;6165009;23;20021;-82
2021/01/04 06:42:18;;;;;;;20.50;12.68;;;1.10;99.90;;;;;;6138919;23;20049;-82
2021/01/04 06:45:03;;;;;;;22.90;14.10;;;1.10;99.90;;;;;;6138921;23;20029;-82
2021/01/04 06:48:01;;;;;;;25.92;13.77;;;1.10;99.90;;;;;;6165589;23;20476;-83
2021/01/04 06:50:37;;;;;;;20.42;12.00;;;1.10;99.90;;;;;;6109590;23;20025;-83
2021/01/04 06:53:35;;;;;;;23.35;12.90;;;1.10;99.90;;;;;;6164415;23;20026;-83
2021/01/04 06:56:46;;;;;;;21.00;12.75;;;1.10;99.90;;;;;;6138276;23;20029;-83
2021/01/04 06:59:47;;;;;;;25.30;13.50;;;1.10;99.90;;;;;;6109584;23;20181;-82
2021/01/04 07:02:55;;;;;;;22.80;12.23;;;1.10;99.90;;;;;;6161986;23;20036;-82
2021/01/04 07:05:52;;;;;;;21.83;12.48;;;1.10;99.90;;;;;;6018812;23;20108;-82
2021/01/04 07:08:32;;;;;;;19.55;11.48;;;1.10;99.90;;;;;;6045232;23;20382;-82
2021/01/04 07:11:14;;;;;;;22.05;11.63;;;1.00;99.90;;;;;;6137789;23;20021;-82
2021/01/04 07:14:08;;;;;;;24.52;13.40;;;1.00;99.90;;;;;;6164135;23;20021;-83
2021/01/04 07:17:04;;;;;;;22.17;13.07;;;1.00;99.90;;;;;;6145023;23;20022;-83
2021/01/04 07:20:18;;;;;;;24.30;14.07;;;1.00;99.90;;;;;;6170529;23;20021;-83
2021/01/04 07:23:20;;;;;;;21.10;12.95;;;1.00;99.90;;;;;;6160441;23;20472;-82
2021/01/04 07:26:11;;;;;;;20.40;12.25;;;1.00;99.90;;;;;;6169802;23;20029;-83
2021/01/04 07:29:05;;;;;;;21.33;12.93;;;1.00;99.90;;;;;;6144002;23;20244;-82
2021/01/04 07:31:50;;;;;;;24.50;13.85;;;1.10;99.90;;;;;;6142191;23;20297;-83
2021/01/04 07:34:28;;;;;;;27.15;14.25;;;1.10;99.90;;;;;;6167655;23;20028;-83
2021/01/04 07:37:18;;;;;;;27.08;13.90;;;1.10;99.90;;;;;;6167366;23;20049;-83
2021/01/04 07:39:54;;;;;;;25.85;13.80;;;1.10;99.90;;;;;;6166044;23;20025;-83
2021/01/04 07:42:39;;;;;;;24.50;13.57;;;1.10;99.90;;;;;;6162312;23;20381;-82
2021/01/04 07:45:47;;;;;;;21.55;13.63;;;1.10;99.90;;;;;;6139870;23;20026;-84
2021/01/04 07:48:46;;;;;;;24.95;14.23;;;1.20;99.90;;;;;;6166385;23;20026;-82
2021/01/04 07:51:22;;;;;;;26.20;13.68;;;1.20;99.90;;;;;;6164684;23;20056;-82
2021/01/04 07:54:06;;;;;;;27.02;14.00;;;1.10;99.90;;;;;;6136170;23;20044;-83
2021/01/04 07:56:41;;;;;;;28.08;15.38;;;1.10;99.90;;;;;;6162912;23;20065;-83
2021/01/04 07:59:35;;;;;;;38.13;19.83;;;1.00;99.90;;;;;;6159921;23;20025;-81
2021/01/04 08:02:32;;;;;;;28.85;15.00;;;1.00;99.90;;;;;;6133971;23;20044;-81
2021/01/04 08:05:37;;;;;;;35.47;15.60;;;1.00;99.90;;;;;;6159645;23;20048;-83
2021/01/04 08:08:32;;;;;;;28.30;14.40;;;1.00;99.90;;;;;;6160409;23;20025;-82
2021/01/04 08:11:45;;;;;;;28.08;13.40;;;1.00;99.90;;;;;;6133698;23;20026;-83
2021/01/04 08:14:29;;;;;;;40.45;18.30;;;1.10;99.90;;;;;;6162633;23;20053;-82
2021/01/04 08:17:10;;;;;;;31.35;15.73;;;1.00;99.90;;;;;;6162648;23;20029;-82
2021/01/04 08:19:38;;;;;;;31.85;15.60;;;1.00;99.90;;;;;;6160906;23;20049;-82
2021/01/04 08:22:18;;;;;;;34.08;14.48;;;1.00;99.90;;;;;;6162008;23;20069;-81
2021/01/04 08:24:47;;;;;;;38.95;18.52;;;1.00;99.90;;;;;;6161823;23;20052;-82
2021/01/04 08:27:32;;;;;;;29.80;14.75;;;1.00;99.90;;;;;;6136140;23;20508;-82
2021/01/04 08:30:23;;;;;;;30.52;14.95;;;0.90;99.90;;;;;;6136294;23;20021;-82
2021/01/04 08:33:16;;;;;;;33.47;15.93;;;0.90;99.90;;;;;;6162202;23;20026;-82
2021/01/04 08:35:45;;;;;;;35.47;16.73;;;0.80;99.90;;;;;;6135213;23;20068;-81
2021/01/04 08:38:21;;;;;;;36.60;16.75;;;0.70;99.90;;;;;;6159067;23;20022;-82
2021/01/04 08:41:23;;;;;;;29.13;15.13;;;0.70;99.90;;;;;;6161512;23;20025;-83
2021/01/04 08:43:52;;;;;;;30.88;14.93;;;0.80;99.90;;;;;;6162657;23;20026;-82
2021/01/04 08:46:21;;;;;;;33.97;16.02;;;0.90;99.90;;;;;;6160026;23;20021;-83
2021/01/04 08:48:56;;;;;;;30.02;15.70;;;1.00;99.90;;;;;;6136526;23;20377;-83
2021/01/04 08:51:33;;;;;;;28.98;15.05;;;1.00;99.90;;;;;;6162115;23;20100;-83
2021/01/04 08:54:03;;;;;;;29.58;14.60;;;1.00;99.90;;;;;;6135289;23;20067;-83
2021/01/04 08:56:52;;;;;;;31.38;15.20;;;1.00;99.90;;;;;;6136004;23;20028;-82
2021/01/04 08:59:26;;;;;;;37.13;19.20;;;1.00;99.90;;;;;;6141317;23;20021;-81
2021/01/04 09:01:54;;;;;;;32.10;16.83;;;1.10;99.90;;;;;;6135022;23;20489;-82
2021/01/04 09:04:31;;;;;;;30.40;15.38;;;1.10;99.90;;;;;;6162095;23;20075;-82
2021/01/04 09:07:16;;;;;;;34.08;16.52;;;1.10;99.90;;;;;;6144222;23;20029;-83
2021/01/04 09:09:49;;;;;;;24.88;13.45;;;1.10;99.90;;;;;;6143788;23;20025;-82
2021/01/04 09:12:22;;;;;;;28.17;15.47;;;1.10;99.90;;;;;;6143828;23;20026;-83
2021/01/04 09:15:01;;;;;;;29.58;15.63;;;1.20;99.90;;;;;;6169405;23;20335;-83
2021/01/04 09:17:48;;;;;;;31.38;16.38;;;1.30;99.90;;;;;;6168595;23;20018;-83
2021/01/04 09:20:20;;;;;;;36.10;16.23;;;1.20;99.90;;;;;;6141764;23;20029;-83
2021/01/04 09:22:48;;;;;;;33.92;15.63;;;1.20;99.90;;;;;;6140490;23;20333;-83
2021/01/04 09:25:43;;;;;;;31.40;16.23;;;1.20;99.90;;;;;;6140380;23;20060;-83
2021/01/04 09:28:10;;;;;;;31.58;16.23;;;1.30;99.90;;;;;;6162131;23;20056;-83
2021/01/04 09:30:36;;;;;;;29.33;15.52;;;1.40;99.90;;;;;;6138084;23;20025;-83
2021/01/04 09:33:09;;;;;;;30.75;16.38;;;1.30;99.90;;;;;;6157987;23;20096;-81
2021/01/04 09:35:35;;;;;;;32.65;15.63;;;1.40;99.90;;;;;;6157186;23;20072;-82
2021/01/04 09:38:13;;;;;;;30.60;15.75;;;1.40;99.90;;;;;;6157216;23;20025;-82
2021/01/04 09:40:44;;;;;;;25.88;15.70;;;1.50;99.90;;;;;;6131998;23;20053;-83
2021/01/04 09:43:12;;;;;;;29.92;15.45;;;1.50;99.90;;;;;;6132564;23;20017;-82
2021/01/04 09:45:39;;;;;;;26.00;15.15;;;1.50;99.90;;;;;;6132104;23;20150;-83
2021/01/04 09:48:13;;;;;;;32.35;16.50;;;1.50;99.90;;;;;;6132204;23;20021;-82
2021/01/04 09:51:02;;;;;;;32.00;15.88;;;1.50;99.90;;;;;;6158731;23;20356;-81
2021/01/04 09:53:37;;;;;;;25.67;14.98;;;1.50;99.90;;;;;;6158729;23;20025;-83
2021/01/04 09:56:12;;;;;;;27.73;14.45;;;1.40;99.90;;;;;;6159665;23;20053;-83
2021/01/04 09:58:39;;;;;;;29.67;14.63;;;1.30;99.90;;;;;;6160017;23;20021;-83
2021/01/04 10:01:16;;;;;;;25.40;13.90;;;1.40;99.90;;;;;;6132914;23;20022;-83
2021/01/04 10:04:11;;;;;;;26.80;13.93;;;1.50;99.90;;;;;;6160316;23;20026;-83
2021/01/04 10:06:40;;;;;;;29.52;14.60;;;1.50;99.90;;;;;;6141604;23;20021;-82
2021/01/04 10:09:13;;;;;;;28.00;15.05;;;1.50;99.90;;;;;;6134212;23;20032;-83
2021/01/04 10:11:43;;;;;;;28.30;15.38;;;1.50;99.90;;;;;;6160337;23;20449;-83
2021/01/04 10:14:13;;;;;;;26.88;14.98;;;1.60;99.90;;;;;;6134506;23;20404;-83
2021/01/04 10:16:43;;;;;;;30.88;15.32;;;1.60;99.90;;;;;;6135845;23;20029;-83
2021/01/04 10:19:21;;;;;;;28.67;15.65;;;1.60;99.90;;;;;;6161984;23;20465;-82
2021/01/04 10:21:58;;;;;;;31.85;15.52;;;1.60;99.90;;;;;;6161326;23;20022;-83
2021/01/04 10:24:50;;;;;;;30.35;15.00;;;1.60;99.90;;;;;;6161801;23;20025;-83
2021/01/04 10:27:20;;;;;;;29.75;14.57;;;1.50;99.90;;;;;;6162263;23;20025;-83
2021/01/04 10:30:06;;;;;;;29.67;15.05;;;1.70;99.90;;;;;;6137454;23;20048;-83
2021/01/04 10:32:35;;;;;;;32.55;15.88;;;1.60;99.90;;;;;;6159735;23;20022;-83
2021/01/04 10:35:03;;;;;;;35.15;15.80;;;1.70;99.90;;;;;;6159833;23;20060;-82
2021/01/04 10:37:47;;;;;;;31.52;15.68;;;1.60;99.90;;;;;;6156648;23;20445;-83
2021/01/04 10:40:17;;;;;;;32.40;15.02;;;1.60;99.90;;;;;;6156536;23;20028;-82
2021/01/04 10:42:45;;;;;;;32.85;15.63;;;1.50;99.90;;;;;;6130874;23;20021;-83
2021/01/04 10:45:16;;;;;;;33.10;15.55;;;1.40;99.90;;;;;;6131400;23;20049;-83
2021/01/04 10:47:52;;;;;;;28.90;14.55;;;1.40;99.90;;;;;;6132058;23;20032;-82
2021/01/04 10:50:38;;;;;;;32.83;15.70;;;1.50;99.90;;;;;;6132251;23;20025;-83
2021/01/04 10:53:11;;;;;;;29.52;15.73;;;1.50;99.90;;;;;;6157881;23;20037;-83
2021/01/04 10:55:50;;;;;;;36.33;15.70;;;1.60;99.90;;;;;;6166814;23;20032;-82
2021/01/04 10:58:31;;;;;;;28.92;15.18;;;1.40;99.90;;;;;;6175552;23;20033;-84
2021/01/04 11:01:13;;;;;;;39.47;16.55;;;1.50;99.90;;;;;;6155782;23;20066;-83
2021/01/04 11:03:55;;;;;;;34.35;15.50;;;1.60;99.90;;;;;;6181387;23;20028;-83
2021/01/04 11:06:31;;;;;;;31.40;15.15;;;1.50;99.90;;;;;;6179369;23;20041;-84
2021/01/04 11:08:58;;;;;;;34.38;16.02;;;1.50;99.90;;;;;;6136243;23;20358;-84
2021/01/04 11:11:35;;;;;;;36.92;15.80;;;1.60;99.90;;;;;;6135864;23;20029;-84
2021/01/04 11:14:17;;;;;;;30.25;15.30;;;1.50;99.90;;;;;;6162933;23;20080;-84
2021/01/04 11:17:18;;;;;;;34.38;15.45;;;1.50;99.90;;;;;;6140272;23;20637;-84
2021/01/04 11:19:45;;;;;;;28.92;15.05;;;1.50;99.90;;;;;;6162963;23;20049;-84
2021/01/04 11:22:19;;;;;;;32.03;14.90;;;1.50;99.90;;;;;;6136827;23;20080;-84
2021/01/04 11:24:46;;;;;;;33.63;15.00;;;1.60;99.90;;;;;;6137759;23;20025;-85
2021/01/04 11:27:14;;;;;;;27.00;13.32;;;1.50;99.90;;;;;;6162631;23;20032;-85
2021/01/04 11:29:43;;;;;;;29.58;14.25;;;1.60;99.90;;;;;;6162495;23;20025;-85
2021/01/04 11:32:11;;;;;;;31.42;16.00;;;1.40;99.90;;;;;;6136191;23;20030;-85
2021/01/04 11:34:45;;;;;;;26.63;14.75;;;1.40;99.90;;;;;;6136883;23;20022;-85
2021/01/04 11:37:12;;;;;;;28.55;14.30;;;1.40;99.90;;;;;;6136908;23;20028;-85
2021/01/04 11:39:39;;;;;;;30.60;14.98;;;1.50;99.90;;;;;;6163549;23;20088;-85
2021/01/04 11:42:07;;;;;;;31.00;15.57;;;1.50;99.90;;;;;;6163064;23;20053;-85
2021/01/04 11:44:35;;;;;;;38.15;21.15;;;1.60;99.90;;;;;;6137318;23;20100;-85
2021/01/04 11:47:03;;;;;;;41.15;22.63;;;1.60;99.90;;;;;;6162735;23;20025;-85
2021/01/04 11:49:32;;;;;;;62.97;40.83;;;1.60;99.90;;;;;;6137238;23;20032;-85
2021/01/04 11:51:59;;;;;;;55.15;35.08;;;1.60;99.90;;;;;;6162380;23;20026;-85
2021/01/04 11:54:27;;;;;;;29.27;18.83;;;1.70;99.90;;;;;;6162830;23;20096;-85
2021/01/04 11:56:53;;;;;;;23.70;13.55;;;1.70;99.90;;;;;;6136444;23;20022;-85
2021/01/04 11:59:20;;;;;;;26.25;17.25;;;1.70;99.90;;;;;;6136341;23;20353;-85
2021/01/04 12:01:51;;;;;;;25.52;14.68;;;1.70;99.90;;;;;;6135916;23;20018;-85
2021/01/04 12:04:17;;;;;;;28.17;17.00;;;1.60;99.90;;;;;;6136536;23;20356;-86
2021/01/04 12:06:48;;;;;;;64.35;38.05;;;1.60;99.90;;;;;;6160858;23;20116;-86
2021/01/04 12:09:14;;;;;;;48.70;30.70;;;1.60;99.90;;;;;;6161672;23;20037;-86
2021/01/04 12:11:41;;;;;;;40.28;21.40;;;1.50;99.90;;;;;;6162682;23;20021;-86
2021/01/04 12:14:08;;;;;;;74.45;45.50;;;1.50;99.90;;;;;;6161897;23;20021;-86
2021/01/04 12:16:36;;;;;;;43.22;26.38;;;1.40;99.90;;;;;;6161870;23;20032;-86
2021/01/04 12:19:05;;;;;;;213.93;134.40;;;1.50;99.90;;;;;;6161234;23;20072;-86
2021/01/04 12:21:32;;;;;;;75.93;44.28;;;1.50;99.90;;;;;;6136112;23;20029;-86
2021/01/04 12:23:58;;;;;;;121.10;77.43;;;1.50;99.90;;;;;;6161278;23;20029;-86
2021/01/04 12:26:25;;;;;;;194.63;133.07;;;1.50;99.90;;;;;;6159763;23;20356;-86
2021/01/04 12:28:51;;;;;;;53.47;33.00;;;1.30;99.90;;;;;;6131274;23;20079;-85
2021/01/04 12:31:18;;;;;;;31.67;16.33;;;1.30;99.90;;;;;;6130831;23;20021;-85
2021/01/04 12:33:48;;;;;;;51.63;33.35;;;1.30;99.90;;;;;;6155591;23;20021;-85
2021/01/04 12:36:20;;;;;;;37.35;23.02;;;1.30;99.90;;;;;;6156741;23;20464;-86
2021/01/04 12:38:47;;;;;;;30.17;16.85;;;1.40;99.90;;;;;;6131582;23;20100;-86
2021/01/04 12:41:14;;;;;;;32.40;16.50;;;1.40;99.90;;;;;;6131496;23;20013;-86
2021/01/04 12:43:43;;;;;;;26.95;15.43;;;1.60;99.90;;;;;;6131890;23;20084;-86
2021/01/04 12:46:12;;;;;;;31.45;15.93;;;1.60;99.90;;;;;;6135427;23;20029;-87
2021/01/04 12:48:39;;;;;;;32.58;18.45;;;1.60;99.90;;;;;;6135925;23;20021;-86
2021/01/04 12:51:12;;;;;;;30.67;15.55;;;1.40;99.90;;;;;;6135644;23;20017;-86
2021/01/04 12:53:38;;;;;;;27.85;15.73;;;1.40;99.90;;;;;;6136543;23;20022;-86
2021/01/04 12:56:05;;;;;;;33.42;15.85;;;1.30;99.90;;;;;;6135434;23;20536;-86
2021/01/04 12:58:32;;;;;;;36.47;18.23;;;1.20;99.90;;;;;;6135156;23;20396;-86
2021/01/04 13:00:58;;;;;;;37.35;17.73;;;1.20;99.90;;;;;;6134789;23;20021;-86
2021/01/04 13:03:42;;;;;;;;;;;1.10;99.90;;;;;;6138836;23;20529;-86
2021/01/04 13:06:09;;;;;;;34.97;16.65;;;1.10;99.90;;;;;;6135901;23;19932;-86
2021/01/04 13:08:37;;;;;;;40.00;17.85;;;1.20;99.90;;;;;;6135739;23;20468;-86
2021/01/04 13:11:04;;;;;;;35.67;16.98;;;1.20;99.90;;;;;;6135618;23;20365;-85
2021/01/04 13:13:30;;;;;;;34.28;16.52;;;1.20;99.90;;;;;;6134799;23;20025;-86
2021/01/04 13:15:56;;;;;;;35.38;17.60;;;1.30;99.90;;;;;;6134000;23;20084;-86
2021/01/04 13:18:22;;;;;;;33.53;16.35;;;1.20;99.90;;;;;;6133091;23;20018;-86
2021/01/04 13:20:49;;;;;;;33.40;16.35;;;1.30;99.90;;;;;;6133696;23;20013;-86
2021/01/04 13:23:15;;;;;;;33.25;16.60;;;1.40;99.90;;;;;;6133178;23;20033;-86
2021/01/04 13:25:41;;;;;;;34.05;16.58;;;1.50;99.90;;;;;;6133920;23;20021;-86
2021/01/04 13:28:08;;;;;;;37.78;17.50;;;1.40;99.90;;;;;;6133912;23;20076;-85
2021/01/04 13:30:35;;;;;;;33.33;17.70;;;1.20;99.90;;;;;;6132986;23;20044;-86
2021/01/04 13:33:01;;;;;;;35.90;16.25;;;1.30;99.90;;;;;;6132697;23;20021;-85